sensor_id;sensor_type;location;lat;lon;timestamp;P1;durP1;ratioP1;P2;durP2;ratioP2
64903;SDS011;51401;48.882;12.598;2023-10-08T00:01:19;7.63;;;5.68;;
64903;SDS011;51401;48.882;12.598;2023-10-08T00:03:46;8.10;;;5.78;;
64903;SDS011;51401;48.882;12.598;2023-10-08T00:06:16;9.17;;;6.03;;
64903;SDS011;51401;48.882;12.598;2023-10-08T00:08:44;12.82;;;6.78;;
64903;SDS011;51401;48.882;12.598;2023-10-08T00:11:09;14.10;;;8.23;;
64903;SDS011;51401;48.882;12.598;2023-10-08T00:13:35;14.85;;;8.80;;
64903;SDS011;51401;48.882;12.598;2023-10-08T00:16:08;10.00;;;6.80;;
64903;SDS011;51401;48.882;12.598;2023-10-08T00:18:35;9.20;;;6.45;;
64903;SDS011;51401;48.882;12.598;2023-10-08T00:21:02;8.90;;;6.55;;
64903;SDS011;51401;48.882;12.598;2023-10-08T00:23:37;8.15;;;5.95;;
64903;SDS011;51401;48.882;12.598;2023-10-08T00:26:07;10.15;;;6.15;;
64903;SDS011;51401;48.882;12.598;2023-10-08T00:28:33;9.00;;;6.05;;
64903;SDS011;51401;48.882;12.598;2023-10-08T00:30:58;8.30;;;5.90;;
64903;SDS011;51401;48.882;12.598;2023-10-08T00:33:37;8.75;;;5.88;;
64903;SDS011;51401;48.882;12.598;2023-10-08T00:36:08;8.45;;;5.97;;
64903;SDS011;51401;48.882;12.598;2023-10-08T00:38:44;8.80;;;5.60;;
64903;SDS011;51401;48.882;12.598;2023-10-08T00:41:13;8.30;;;5.72;;
64903;SDS011;51401;48.882;12.598;2023-10-08T00:43:41;7.10;;;6.05;;
64903;SDS011;51401;48.882;12.598;2023-10-08T00:46:10;9.68;;;6.13;;
64903;SDS011;51401;48.882;12.598;2023-10-08T00:48:55;9.93;;;6.78;;
64903;SDS011;51401;48.882;12.598;2023-10-08T00:51:25;7.88;;;5.78;;
64903;SDS011;51401;48.882;12.598;2023-10-08T00:53:56;8.68;;;6.28;;
64903;SDS011;51401;48.882;12.598;2023-10-08T00:56:31;8.82;;;5.88;;
64903;SDS011;51401;48.882;12.598;2023-10-08T00:59:17;8.93;;;6.05;;
64903;SDS011;51401;48.882;12.598;2023-10-08T01:01:46;9.10;;;6.43;;
64903;SDS011;51401;48.882;12.598;2023-10-08T01:04:16;7.88;;;5.55;;
64903;SDS011;51401;48.882;12.598;2023-10-08T01:06:42;8.13;;;5.30;;
64903;SDS011;51401;48.882;12.598;2023-10-08T01:09:08;9.07;;;5.45;;
64903;SDS011;51401;48.882;12.598;2023-10-08T01:11:42;8.80;;;5.93;;
64903;SDS011;51401;48.882;12.598;2023-10-08T01:14:14;8.82;;;5.97;;
64903;SDS011;51401;48.882;12.598;2023-10-08T01:16:40;8.02;;;6.03;;
64903;SDS011;51401;48.882;12.598;2023-10-08T01:19:10;7.00;;;5.57;;
64903;SDS011;51401;48.882;12.598;2023-10-08T01:21:38;9.10;;;5.80;;
64903;SDS011;51401;48.882;12.598;2023-10-08T01:24:07;7.32;;;5.28;;
64903;SDS011;51401;48.882;12.598;2023-10-08T01:26:33;7.78;;;5.45;;
64903;SDS011;51401;48.882;12.598;2023-10-08T01:28:59;11.07;;;6.55;;
64903;SDS011;51401;48.882;12.598;2023-10-08T01:31:29;9.20;;;6.53;;
64903;SDS011;51401;48.882;12.598;2023-10-08T01:33:55;9.10;;;6.53;;
64903;SDS011;51401;48.882;12.598;2023-10-08T01:36:22;11.88;;;7.13;;
64903;SDS011;51401;48.882;12.598;2023-10-08T01:38:49;9.60;;;6.88;;
64903;SDS011;51401;48.882;12.598;2023-10-08T01:41:14;7.47;;;5.65;;
64903;SDS011;51401;48.882;12.598;2023-10-08T01:43:53;10.30;;;6.22;;
64903;SDS011;51401;48.882;12.598;2023-10-08T01:46:18;9.87;;;5.83;;
64903;SDS011;51401;48.882;12.598;2023-10-08T01:48:46;7.30;;;6.00;;
64903;SDS011;51401;48.882;12.598;2023-10-08T01:51:15;7.90;;;5.85;;
64903;SDS011;51401;48.882;12.598;2023-10-08T01:53:50;8.43;;;5.15;;
64903;SDS011;51401;48.882;12.598;2023-10-08T01:56:19;9.27;;;6.17;;
64903;SDS011;51401;48.882;12.598;2023-10-08T01:58:44;7.75;;;5.38;;
64903;SDS011;51401;48.882;12.598;2023-10-08T02:01:11;7.88;;;6.13;;
64903;SDS011;51401;48.882;12.598;2023-10-08T02:03:37;10.65;;;7.05;;
64903;SDS011;51401;48.882;12.598;2023-10-08T02:06:03;8.27;;;5.93;;
64903;SDS011;51401;48.882;12.598;2023-10-08T02:08:31;9.45;;;5.63;;
64903;SDS011;51401;48.882;12.598;2023-10-08T02:10:56;7.25;;;6.13;;
64903;SDS011;51401;48.882;12.598;2023-10-08T02:13:22;7.47;;;5.55;;
64903;SDS011;51401;48.882;12.598;2023-10-08T02:15:49;9.30;;;5.78;;
64903;SDS011;51401;48.882;12.598;2023-10-08T02:18:16;6.72;;;5.10;;
64903;SDS011;51401;48.882;12.598;2023-10-08T02:20:42;8.90;;;5.50;;
64903;SDS011;51401;48.882;12.598;2023-10-08T02:23:08;8.90;;;5.80;;
64903;SDS011;51401;48.882;12.598;2023-10-08T02:25:36;8.85;;;5.50;;
64903;SDS011;51401;48.882;12.598;2023-10-08T02:28:06;9.13;;;6.47;;
64903;SDS011;51401;48.882;12.598;2023-10-08T02:30:37;8.55;;;5.80;;
64903;SDS011;51401;48.882;12.598;2023-10-08T02:33:04;8.30;;;5.30;;
64903;SDS011;51401;48.882;12.598;2023-10-08T02:35:42;9.15;;;6.32;;
64903;SDS011;51401;48.882;12.598;2023-10-08T02:38:08;9.80;;;6.90;;
64903;SDS011;51401;48.882;12.598;2023-10-08T02:40:37;8.82;;;6.22;;
64903;SDS011;51401;48.882;12.598;2023-10-08T02:43:03;9.23;;;6.10;;
64903;SDS011;51401;48.882;12.598;2023-10-08T02:45:31;7.55;;;5.68;;
64903;SDS011;51401;48.882;12.598;2023-10-08T02:47:56;10.35;;;6.20;;
64903;SDS011;51401;48.882;12.598;2023-10-08T02:50:22;8.10;;;5.97;;
64903;SDS011;51401;48.882;12.598;2023-10-08T02:52:50;8.48;;;5.65;;
64903;SDS011;51401;48.882;12.598;2023-10-08T02:55:17;6.55;;;5.20;;
64903;SDS011;51401;48.882;12.598;2023-10-08T02:58:08;9.68;;;5.93;;
64903;SDS011;51401;48.882;12.598;2023-10-08T03:00:38;12.02;;;6.68;;
64903;SDS011;51401;48.882;12.598;2023-10-08T03:03:05;8.43;;;6.65;;
64903;SDS011;51401;48.882;12.598;2023-10-08T03:05:40;8.40;;;6.10;;
64903;SDS011;51401;48.882;12.598;2023-10-08T03:08:06;9.18;;;5.75;;
64903;SDS011;51401;48.882;12.598;2023-10-08T03:10:35;8.07;;;5.50;;
64903;SDS011;51401;48.882;12.598;2023-10-08T03:13:02;13.35;;;6.25;;
64903;SDS011;51401;48.882;12.598;2023-10-08T03:15:32;10.68;;;6.22;;
64903;SDS011;51401;48.882;12.598;2023-10-08T03:18:05;9.48;;;6.22;;
64903;SDS011;51401;48.882;12.598;2023-10-08T03:20:39;9.10;;;5.70;;
64903;SDS011;51401;48.882;12.598;2023-10-08T03:23:09;9.10;;;6.27;;
64903;SDS011;51401;48.882;12.598;2023-10-08T03:28:29;7.57;;;6.00;;
64903;SDS011;51401;48.882;12.598;2023-10-08T03:30:59;9.13;;;5.35;;
64903;SDS011;51401;48.882;12.598;2023-10-08T03:33:29;6.28;;;5.00;;
64903;SDS011;51401;48.882;12.598;2023-10-08T03:38:25;9.07;;;5.82;;
64903;SDS011;51401;48.882;12.598;2023-10-08T03:41:09;8.75;;;5.82;;
64903;SDS011;51401;48.882;12.598;2023-10-08T03:43:40;7.60;;;4.78;;
64903;SDS011;51401;48.882;12.598;2023-10-08T03:46:18;6.85;;;4.90;;
64903;SDS011;51401;48.882;12.598;2023-10-08T03:48:46;9.45;;;5.32;;
64903;SDS011;51401;48.882;12.598;2023-10-08T03:51:12;9.02;;;5.40;;
64903;SDS011;51401;48.882;12.598;2023-10-08T03:53:38;9.77;;;5.15;;
64903;SDS011;51401;48.882;12.598;2023-10-08T03:56:24;7.53;;;5.90;;
64903;SDS011;51401;48.882;12.598;2023-10-08T03:58:55;9.73;;;6.32;;
64903;SDS011;51401;48.882;12.598;2023-10-08T04:01:25;8.50;;;5.60;;
64903;SDS011;51401;48.882;12.598;2023-10-08T04:03:55;9.00;;;5.37;;
64903;SDS011;51401;48.882;12.598;2023-10-08T04:06:24;7.35;;;5.53;;
64903;SDS011;51401;48.882;12.598;2023-10-08T04:08:56;9.38;;;5.75;;
64903;SDS011;51401;48.882;12.598;2023-10-08T04:11:34;7.13;;;5.50;;
64903;SDS011;51401;48.882;12.598;2023-10-08T04:14:17;8.75;;;5.88;;
64903;SDS011;51401;48.882;12.598;2023-10-08T04:16:43;8.48;;;5.53;;
64903;SDS011;51401;48.882;12.598;2023-10-08T04:19:09;8.43;;;5.60;;
64903;SDS011;51401;48.882;12.598;2023-10-08T04:21:35;7.65;;;5.55;;
64903;SDS011;51401;48.882;12.598;2023-10-08T04:24:00;7.88;;;4.82;;
64903;SDS011;51401;48.882;12.598;2023-10-08T04:26:28;7.90;;;5.50;;
64903;SDS011;51401;48.882;12.598;2023-10-08T04:28:54;7.97;;;5.22;;
64903;SDS011;51401;48.882;12.598;2023-10-08T04:31:23;9.93;;;6.28;;
64903;SDS011;51401;48.882;12.598;2023-10-08T04:34:10;10.23;;;6.32;;
64903;SDS011;51401;48.882;12.598;2023-10-08T04:36:44;6.88;;;5.68;;
64903;SDS011;51401;48.882;12.598;2023-10-08T04:39:14;7.97;;;5.22;;
64903;SDS011;51401;48.882;12.598;2023-10-08T04:41:46;7.30;;;5.63;;
64903;SDS011;51401;48.882;12.598;2023-10-08T04:44:13;6.82;;;4.72;;
64903;SDS011;51401;48.882;12.598;2023-10-08T04:46:41;6.53;;;4.97;;
64903;SDS011;51401;48.882;12.598;2023-10-08T04:49:16;7.88;;;6.20;;
64903;SDS011;51401;48.882;12.598;2023-10-08T04:51:58;8.13;;;6.18;;
64903;SDS011;51401;48.882;12.598;2023-10-08T04:54:25;9.88;;;6.10;;
64903;SDS011;51401;48.882;12.598;2023-10-08T04:56:55;9.63;;;6.20;;
64903;SDS011;51401;48.882;12.598;2023-10-08T04:59:25;9.93;;;6.88;;
64903;SDS011;51401;48.882;12.598;2023-10-08T05:01:58;10.20;;;6.05;;
64903;SDS011;51401;48.882;12.598;2023-10-08T05:04:47;9.37;;;6.30;;
64903;SDS011;51401;48.882;12.598;2023-10-08T05:09:46;7.97;;;6.00;;
64903;SDS011;51401;48.882;12.598;2023-10-08T05:12:31;8.85;;;6.80;;
64903;SDS011;51401;48.882;12.598;2023-10-08T05:18:03;7.20;;;6.22;;
64903;SDS011;51401;48.882;12.598;2023-10-08T05:20:49;9.02;;;6.57;;
64903;SDS011;51401;48.882;12.598;2023-10-08T05:23:15;10.38;;;6.97;;
64903;SDS011;51401;48.882;12.598;2023-10-08T05:25:47;9.07;;;6.10;;
64903;SDS011;51401;48.882;12.598;2023-10-08T05:28:31;9.48;;;5.50;;
64903;SDS011;51401;48.882;12.598;2023-10-08T05:31:06;8.85;;;4.85;;
64903;SDS011;51401;48.882;12.598;2023-10-08T05:33:43;7.07;;;3.65;;
64903;SDS011;51401;48.882;12.598;2023-10-08T05:36:27;8.45;;;4.70;;
64903;SDS011;51401;48.882;12.598;2023-10-08T05:38:59;6.82;;;4.70;;
64903;SDS011;51401;48.882;12.598;2023-10-08T05:41:44;7.05;;;4.85;;
64903;SDS011;51401;48.882;12.598;2023-10-08T05:44:28;7.13;;;4.43;;
64903;SDS011;51401;48.882;12.598;2023-10-08T05:47:04;6.05;;;3.75;;
64903;SDS011;51401;48.882;12.598;2023-10-08T05:49:49;5.43;;;3.95;;
64903;SDS011;51401;48.882;12.598;2023-10-08T05:52:47;5.97;;;4.18;;
64903;SDS011;51401;48.882;12.598;2023-10-08T05:55:18;5.90;;;3.90;;
64903;SDS011;51401;48.882;12.598;2023-10-08T05:57:53;6.75;;;4.80;;
64903;SDS011;51401;48.882;12.598;2023-10-08T06:00:42;11.73;;;5.65;;
64903;SDS011;51401;48.882;12.598;2023-10-08T06:03:14;7.68;;;5.40;;
64903;SDS011;51401;48.882;12.598;2023-10-08T06:06:01;6.80;;;4.72;;
64903;SDS011;51401;48.882;12.598;2023-10-08T06:08:36;7.05;;;4.97;;
64903;SDS011;51401;48.882;12.598;2023-10-08T06:11:17;13.38;;;8.82;;
64903;SDS011;51401;48.882;12.598;2023-10-08T06:14:04;10.02;;;6.82;;
64903;SDS011;51401;48.882;12.598;2023-10-08T06:16:39;9.38;;;5.63;;
64903;SDS011;51401;48.882;12.598;2023-10-08T06:19:27;10.13;;;5.68;;
64903;SDS011;51401;48.882;12.598;2023-10-08T06:21:52;9.13;;;5.10;;
64903;SDS011;51401;48.882;12.598;2023-10-08T06:24:18;7.00;;;4.75;;
64903;SDS011;51401;48.882;12.598;2023-10-08T06:26:45;10.02;;;5.13;;
64903;SDS011;51401;48.882;12.598;2023-10-08T06:29:13;8.15;;;5.68;;
64903;SDS011;51401;48.882;12.598;2023-10-08T06:31:52;8.60;;;5.55;;
64903;SDS011;51401;48.882;12.598;2023-10-08T06:34:20;6.88;;;4.68;;
64903;SDS011;51401;48.882;12.598;2023-10-08T06:36:50;6.40;;;5.03;;
64903;SDS011;51401;48.882;12.598;2023-10-08T06:39:22;8.60;;;5.38;;
64903;SDS011;51401;48.882;12.598;2023-10-08T06:41:58;6.72;;;4.68;;
64903;SDS011;51401;48.882;12.598;2023-10-08T06:44:24;7.53;;;4.65;;
64903;SDS011;51401;48.882;12.598;2023-10-08T06:46:51;5.45;;;3.20;;
64903;SDS011;51401;48.882;12.598;2023-10-08T06:49:20;6.03;;;4.13;;
64903;SDS011;51401;48.882;12.598;2023-10-08T06:51:48;9.55;;;5.18;;
64903;SDS011;51401;48.882;12.598;2023-10-08T06:54:15;6.97;;;4.40;;
64903;SDS011;51401;48.882;12.598;2023-10-08T06:56:42;8.20;;;4.55;;
64903;SDS011;51401;48.882;12.598;2023-10-08T06:59:17;8.25;;;4.30;;
64903;SDS011;51401;48.882;12.598;2023-10-08T07:01:42;6.50;;;4.10;;
64903;SDS011;51401;48.882;12.598;2023-10-08T07:04:11;9.77;;;4.70;;
64903;SDS011;51401;48.882;12.598;2023-10-08T07:06:40;5.32;;;3.67;;
64903;SDS011;51401;48.882;12.598;2023-10-08T07:09:08;6.32;;;3.65;;
64903;SDS011;51401;48.882;12.598;2023-10-08T07:11:47;6.13;;;4.60;;
64903;SDS011;51401;48.882;12.598;2023-10-08T07:14:19;6.13;;;4.43;;
64903;SDS011;51401;48.882;12.598;2023-10-08T07:16:45;6.63;;;4.20;;
64903;SDS011;51401;48.882;12.598;2023-10-08T07:19:13;6.45;;;4.22;;
64903;SDS011;51401;48.882;12.598;2023-10-08T07:21:43;5.90;;;4.20;;
64903;SDS011;51401;48.882;12.598;2023-10-08T07:24:15;7.03;;;5.07;;
64903;SDS011;51401;48.882;12.598;2023-10-08T07:26:42;8.18;;;4.93;;
64903;SDS011;51401;48.882;12.598;2023-10-08T07:29:15;7.93;;;4.82;;
64903;SDS011;51401;48.882;12.598;2023-10-08T07:31:47;7.43;;;5.00;;
64903;SDS011;51401;48.882;12.598;2023-10-08T07:34:17;5.47;;;4.00;;
64903;SDS011;51401;48.882;12.598;2023-10-08T07:36:47;5.55;;;3.90;;
64903;SDS011;51401;48.882;12.598;2023-10-08T07:39:14;5.82;;;3.85;;
64903;SDS011;51401;48.882;12.598;2023-10-08T07:41:51;6.18;;;4.28;;
64903;SDS011;51401;48.882;12.598;2023-10-08T07:44:19;5.40;;;3.90;;
64903;SDS011;51401;48.882;12.598;2023-10-08T07:46:49;9.88;;;5.10;;
64903;SDS011;51401;48.882;12.598;2023-10-08T07:49:15;6.05;;;4.28;;
64903;SDS011;51401;48.882;12.598;2023-10-08T07:51:42;6.70;;;4.00;;
64903;SDS011;51401;48.882;12.598;2023-10-08T07:54:15;7.13;;;3.97;;
64903;SDS011;51401;48.882;12.598;2023-10-08T07:56:44;5.75;;;4.13;;
64903;SDS011;51401;48.882;12.598;2023-10-08T07:59:10;7.47;;;4.63;;
64903;SDS011;51401;48.882;12.598;2023-10-08T08:01:39;8.02;;;4.00;;
64903;SDS011;51401;48.882;12.598;2023-10-08T08:04:07;7.00;;;4.00;;
64903;SDS011;51401;48.882;12.598;2023-10-08T08:06:35;7.55;;;4.20;;
64903;SDS011;51401;48.882;12.598;2023-10-08T08:09:02;6.10;;;3.92;;
64903;SDS011;51401;48.882;12.598;2023-10-08T08:11:29;5.85;;;3.92;;
64903;SDS011;51401;48.882;12.598;2023-10-08T08:13:55;6.18;;;3.75;;
64903;SDS011;51401;48.882;12.598;2023-10-08T08:16:20;4.83;;;3.47;;
64903;SDS011;51401;48.882;12.598;2023-10-08T08:18:52;6.93;;;4.10;;
64903;SDS011;51401;48.882;12.598;2023-10-08T08:21:22;7.25;;;4.40;;
64903;SDS011;51401;48.882;12.598;2023-10-08T08:23:48;5.53;;;3.92;;
64903;SDS011;51401;48.882;12.598;2023-10-08T08:26:18;6.80;;;4.15;;
64903;SDS011;51401;48.882;12.598;2023-10-08T08:29:00;4.95;;;3.85;;
64903;SDS011;51401;48.882;12.598;2023-10-08T08:31:29;8.48;;;3.40;;
64903;SDS011;51401;48.882;12.598;2023-10-08T08:34:00;7.03;;;3.80;;
64903;SDS011;51401;48.882;12.598;2023-10-08T08:36:45;7.22;;;4.00;;
64903;SDS011;51401;48.882;12.598;2023-10-08T08:39:14;6.30;;;3.85;;
64903;SDS011;51401;48.882;12.598;2023-10-08T08:42:00;5.25;;;3.47;;
64903;SDS011;51401;48.882;12.598;2023-10-08T08:44:30;4.55;;;3.63;;
64903;SDS011;51401;48.882;12.598;2023-10-08T08:46:58;5.80;;;3.60;;
64903;SDS011;51401;48.882;12.598;2023-10-08T08:49:26;6.60;;;3.83;;
64903;SDS011;51401;48.882;12.598;2023-10-08T08:51:53;6.78;;;3.85;;
64903;SDS011;51401;48.882;12.598;2023-10-08T08:54:20;5.80;;;3.40;;
64903;SDS011;51401;48.882;12.598;2023-10-08T08:56:46;5.32;;;3.60;;
64903;SDS011;51401;48.882;12.598;2023-10-08T08:59:12;5.80;;;3.75;;
64903;SDS011;51401;48.882;12.598;2023-10-08T09:01:39;4.93;;;3.85;;
64903;SDS011;51401;48.882;12.598;2023-10-08T09:04:05;4.88;;;3.30;;
64903;SDS011;51401;48.882;12.598;2023-10-08T09:06:34;5.90;;;3.45;;
64903;SDS011;51401;48.882;12.598;2023-10-08T09:09:03;6.75;;;3.88;;
64903;SDS011;51401;48.882;12.598;2023-10-08T09:11:48;6.57;;;3.70;;
64903;SDS011;51401;48.882;12.598;2023-10-08T09:14:17;4.95;;;3.40;;
64903;SDS011;51401;48.882;12.598;2023-10-08T09:16:45;5.00;;;3.58;;
64903;SDS011;51401;48.882;12.598;2023-10-08T09:19:10;6.30;;;3.37;;
64903;SDS011;51401;48.882;12.598;2023-10-08T09:21:41;5.07;;;3.47;;
64903;SDS011;51401;48.882;12.598;2023-10-08T09:24:06;5.97;;;3.17;;
64903;SDS011;51401;48.882;12.598;2023-10-08T09:26:35;6.57;;;3.25;;
64903;SDS011;51401;48.882;12.598;2023-10-08T09:29:04;6.45;;;3.15;;
64903;SDS011;51401;48.882;12.598;2023-10-08T09:31:30;5.28;;;3.22;;
64903;SDS011;51401;48.882;12.598;2023-10-08T09:34:00;5.07;;;3.30;;
64903;SDS011;51401;48.882;12.598;2023-10-08T09:36:28;5.28;;;3.80;;
64903;SDS011;51401;48.882;12.598;2023-10-08T09:39:06;5.57;;;3.42;;
64903;SDS011;51401;48.882;12.598;2023-10-08T09:41:32;4.80;;;3.50;;
64903;SDS011;51401;48.882;12.598;2023-10-08T09:43:58;8.30;;;5.40;;
64903;SDS011;51401;48.882;12.598;2023-10-08T09:46:27;7.47;;;4.63;;
64903;SDS011;51401;48.882;12.598;2023-10-08T09:48:56;7.30;;;4.65;;
64903;SDS011;51401;48.882;12.598;2023-10-08T09:51:24;7.20;;;4.33;;
64903;SDS011;51401;48.882;12.598;2023-10-08T09:54:01;5.45;;;4.13;;
64903;SDS011;51401;48.882;12.598;2023-10-08T09:56:35;7.00;;;3.67;;
64903;SDS011;51401;48.882;12.598;2023-10-08T09:59:01;5.07;;;3.35;;
64903;SDS011;51401;48.882;12.598;2023-10-08T10:01:27;6.43;;;3.05;;
64903;SDS011;51401;48.882;12.598;2023-10-08T10:03:53;7.25;;;3.67;;
64903;SDS011;51401;48.882;12.598;2023-10-08T10:06:19;4.60;;;3.17;;
64903;SDS011;51401;48.882;12.598;2023-10-08T10:08:45;5.28;;;2.85;;
64903;SDS011;51401;48.882;12.598;2023-10-08T10:11:13;4.65;;;3.08;;
64903;SDS011;51401;48.882;12.598;2023-10-08T10:13:44;6.55;;;3.13;;
64903;SDS011;51401;48.882;12.598;2023-10-08T10:16:18;4.63;;;2.88;;
64903;SDS011;51401;48.882;12.598;2023-10-08T10:18:48;5.60;;;3.50;;
64903;SDS011;51401;48.882;12.598;2023-10-08T10:23:47;6.10;;;3.38;;
64903;SDS011;51401;48.882;12.598;2023-10-08T10:26:22;4.60;;;2.90;;
64903;SDS011;51401;48.882;12.598;2023-10-08T10:31:34;6.07;;;3.78;;
64903;SDS011;51401;48.882;12.598;2023-10-08T10:34:04;7.03;;;4.15;;
64903;SDS011;51401;48.882;12.598;2023-10-08T10:36:30;9.63;;;5.65;;
64903;SDS011;51401;48.882;12.598;2023-10-08T10:38:56;11.57;;;5.40;;
64903;SDS011;51401;48.882;12.598;2023-10-08T10:41:22;7.70;;;3.60;;
64903;SDS011;51401;48.882;12.598;2023-10-08T10:43:47;6.07;;;2.73;;
64903;SDS011;51401;48.882;12.598;2023-10-08T10:49:05;7.10;;;3.38;;
64903;SDS011;51401;48.882;12.598;2023-10-08T10:51:43;5.72;;;2.85;;
64903;SDS011;51401;48.882;12.598;2023-10-08T10:54:11;5.75;;;3.40;;
64903;SDS011;51401;48.882;12.598;2023-10-08T10:56:44;7.55;;;3.60;;
64903;SDS011;51401;48.882;12.598;2023-10-08T10:59:12;4.30;;;2.70;;
64903;SDS011;51401;48.882;12.598;2023-10-08T11:01:49;5.25;;;3.13;;
64903;SDS011;51401;48.882;12.598;2023-10-08T11:04:30;4.75;;;3.00;;
64903;SDS011;51401;48.882;12.598;2023-10-08T11:06:56;4.65;;;2.95;;
64903;SDS011;51401;48.882;12.598;2023-10-08T11:09:24;4.43;;;3.30;;
64903;SDS011;51401;48.882;12.598;2023-10-08T11:14:38;5.68;;;3.30;;
64903;SDS011;51401;48.882;12.598;2023-10-08T11:17:12;5.78;;;2.90;;
64903;SDS011;51401;48.882;12.598;2023-10-08T11:19:44;6.78;;;3.50;;
64903;SDS011;51401;48.882;12.598;2023-10-08T11:22:13;5.03;;;3.30;;
64903;SDS011;51401;48.882;12.598;2023-10-08T11:24:43;7.40;;;3.38;;
64903;SDS011;51401;48.882;12.598;2023-10-08T11:27:18;7.00;;;3.92;;
64903;SDS011;51401;48.882;12.598;2023-10-08T11:30:03;4.28;;;2.55;;
64903;SDS011;51401;48.882;12.598;2023-10-08T11:32:35;5.75;;;3.15;;
64903;SDS011;51401;48.882;12.598;2023-10-08T11:35:03;6.35;;;3.33;;
64903;SDS011;51401;48.882;12.598;2023-10-08T11:37:44;4.22;;;3.30;;
64903;SDS011;51401;48.882;12.598;2023-10-08T11:40:22;5.32;;;3.28;;
64903;SDS011;51401;48.882;12.598;2023-10-08T11:42:53;5.60;;;2.90;;
64903;SDS011;51401;48.882;12.598;2023-10-08T11:45:25;5.05;;;3.25;;
64903;SDS011;51401;48.882;12.598;2023-10-08T11:48:03;8.80;;;3.97;;
64903;SDS011;51401;48.882;12.598;2023-10-08T11:50:37;6.45;;;3.53;;
64903;SDS011;51401;48.882;12.598;2023-10-08T11:53:03;6.50;;;3.13;;
64903;SDS011;51401;48.882;12.598;2023-10-08T11:55:31;7.28;;;3.40;;
64903;SDS011;51401;48.882;12.598;2023-10-08T11:58:02;5.38;;;3.00;;
64903;SDS011;51401;48.882;12.598;2023-10-08T12:00:35;4.93;;;2.85;;
64903;SDS011;51401;48.882;12.598;2023-10-08T12:03:09;5.70;;;2.97;;
64903;SDS011;51401;48.882;12.598;2023-10-08T12:05:38;5.38;;;3.22;;
64903;SDS011;51401;48.882;12.598;2023-10-08T12:08:27;6.97;;;3.23;;
64903;SDS011;51401;48.882;12.598;2023-10-08T12:10:53;7.57;;;3.53;;
64903;SDS011;51401;48.882;12.598;2023-10-08T12:13:19;6.38;;;3.13;;
64903;SDS011;51401;48.882;12.598;2023-10-08T12:15:53;6.03;;;3.33;;
64903;SDS011;51401;48.882;12.598;2023-10-08T12:18:31;5.15;;;3.20;;
64903;SDS011;51401;48.882;12.598;2023-10-08T12:21:04;6.10;;;3.33;;
64903;SDS011;51401;48.882;12.598;2023-10-08T12:23:30;6.53;;;3.47;;
64903;SDS011;51401;48.882;12.598;2023-10-08T12:25:58;7.45;;;4.65;;
64903;SDS011;51401;48.882;12.598;2023-10-08T12:28:25;6.57;;;3.38;;
64903;SDS011;51401;48.882;12.598;2023-10-08T12:30:54;6.32;;;3.90;;
64903;SDS011;51401;48.882;12.598;2023-10-08T12:33:24;6.85;;;4.00;;
64903;SDS011;51401;48.882;12.598;2023-10-08T12:35:51;9.65;;;5.85;;
64903;SDS011;51401;48.882;12.598;2023-10-08T12:38:20;11.10;;;9.07;;
64903;SDS011;51401;48.882;12.598;2023-10-08T12:40:50;6.40;;;3.83;;
64903;SDS011;51401;48.882;12.598;2023-10-08T12:43:27;4.97;;;3.33;;
64903;SDS011;51401;48.882;12.598;2023-10-08T12:45:52;7.75;;;3.80;;
64903;SDS011;51401;48.882;12.598;2023-10-08T12:50:48;6.78;;;3.75;;
64903;SDS011;51401;48.882;12.598;2023-10-08T12:53:25;6.32;;;3.47;;
64903;SDS011;51401;48.882;12.598;2023-10-08T12:56:04;5.03;;;3.22;;
64903;SDS011;51401;48.882;12.598;2023-10-08T12:58:31;6.10;;;3.75;;
64903;SDS011;51401;48.882;12.598;2023-10-08T13:01:03;5.63;;;4.43;;
64903;SDS011;51401;48.882;12.598;2023-10-08T13:03:31;6.68;;;3.60;;
64903;SDS011;51401;48.882;12.598;2023-10-08T13:05:57;10.07;;;4.05;;
64903;SDS011;51401;48.882;12.598;2023-10-08T13:08:31;7.18;;;3.53;;
64903;SDS011;51401;48.882;12.598;2023-10-08T13:10:58;7.85;;;4.00;;
64903;SDS011;51401;48.882;12.598;2023-10-08T13:13:29;6.80;;;3.63;;
64903;SDS011;51401;48.882;12.598;2023-10-08T13:16:07;5.85;;;3.55;;
64903;SDS011;51401;48.882;12.598;2023-10-08T13:18:35;7.35;;;3.60;;
64903;SDS011;51401;48.882;12.598;2023-10-08T13:21:08;7.68;;;3.15;;
64903;SDS011;51401;48.882;12.598;2023-10-08T13:23:34;9.05;;;3.40;;
64903;SDS011;51401;48.882;12.598;2023-10-08T13:26:00;7.95;;;4.57;;
64903;SDS011;51401;48.882;12.598;2023-10-08T13:28:29;6.88;;;4.00;;
64903;SDS011;51401;48.882;12.598;2023-10-08T13:30:55;4.97;;;3.20;;
64903;SDS011;51401;48.882;12.598;2023-10-08T13:33:21;4.50;;;3.20;;
64903;SDS011;51401;48.882;12.598;2023-10-08T13:35:50;6.80;;;4.32;;
64903;SDS011;51401;48.882;12.598;2023-10-08T13:38:18;4.60;;;3.28;;
64903;SDS011;51401;48.882;12.598;2023-10-08T13:40:47;7.65;;;4.00;;
64903;SDS011;51401;48.882;12.598;2023-10-08T13:43:39;6.38;;;3.47;;
64903;SDS011;51401;48.882;12.598;2023-10-08T13:46:07;9.63;;;5.63;;
64903;SDS011;51401;48.882;12.598;2023-10-08T13:48:38;6.18;;;3.40;;
64903;SDS011;51401;48.882;12.598;2023-10-08T13:51:06;7.75;;;4.68;;
64903;SDS011;51401;48.882;12.598;2023-10-08T13:53:38;9.35;;;3.63;;
64903;SDS011;51401;48.882;12.598;2023-10-08T13:56:10;7.93;;;3.80;;
64903;SDS011;51401;48.882;12.598;2023-10-08T13:58:36;7.93;;;3.17;;
64903;SDS011;51401;48.882;12.598;2023-10-08T14:01:06;9.10;;;4.20;;
64903;SDS011;51401;48.882;12.598;2023-10-08T14:03:53;4.93;;;3.50;;
64903;SDS011;51401;48.882;12.598;2023-10-08T14:06:21;4.90;;;3.83;;
64903;SDS011;51401;48.882;12.598;2023-10-08T14:08:47;6.97;;;3.85;;
64903;SDS011;51401;48.882;12.598;2023-10-08T14:11:22;4.53;;;3.25;;
64903;SDS011;51401;48.882;12.598;2023-10-08T14:13:55;5.35;;;3.42;;
64903;SDS011;51401;48.882;12.598;2023-10-08T14:16:21;6.72;;;3.60;;
64903;SDS011;51401;48.882;12.598;2023-10-08T14:18:54;6.32;;;3.35;;
64903;SDS011;51401;48.882;12.598;2023-10-08T14:21:20;4.20;;;2.90;;
64903;SDS011;51401;48.882;12.598;2023-10-08T14:23:52;4.47;;;3.03;;
64903;SDS011;51401;48.882;12.598;2023-10-08T14:26:18;3.92;;;2.63;;
64903;SDS011;51401;48.882;12.598;2023-10-08T14:28:47;4.32;;;3.00;;
64903;SDS011;51401;48.882;12.598;2023-10-08T14:31:18;4.75;;;2.60;;
64903;SDS011;51401;48.882;12.598;2023-10-08T14:33:47;4.80;;;2.90;;
64903;SDS011;51401;48.882;12.598;2023-10-08T14:36:32;3.72;;;2.63;;
64903;SDS011;51401;48.882;12.598;2023-10-08T14:39:16;3.78;;;2.67;;
64903;SDS011;51401;48.882;12.598;2023-10-08T14:42:14;3.33;;;2.47;;
64903;SDS011;51401;48.882;12.598;2023-10-08T14:44:58;3.17;;;2.47;;
64903;SDS011;51401;48.882;12.598;2023-10-08T14:47:23;4.77;;;3.00;;
64903;SDS011;51401;48.882;12.598;2023-10-08T14:49:48;6.38;;;3.95;;
64903;SDS011;51401;48.882;12.598;2023-10-08T14:52:14;4.65;;;3.00;;
64903;SDS011;51401;48.882;12.598;2023-10-08T14:54:39;5.22;;;3.60;;
64903;SDS011;51401;48.882;12.598;2023-10-08T14:57:05;3.97;;;2.65;;
64903;SDS011;51401;48.882;12.598;2023-10-08T14:59:32;3.60;;;2.85;;
64903;SDS011;51401;48.882;12.598;2023-10-08T15:01:58;3.05;;;2.67;;
64903;SDS011;51401;48.882;12.598;2023-10-08T15:04:26;5.88;;;3.03;;
64903;SDS011;51401;48.882;12.598;2023-10-08T15:06:53;6.00;;;2.75;;
64903;SDS011;51401;48.882;12.598;2023-10-08T15:09:21;3.30;;;2.35;;
64903;SDS011;51401;48.882;12.598;2023-10-08T15:11:48;2.60;;;2.40;;
64903;SDS011;51401;48.882;12.598;2023-10-08T15:14:16;3.50;;;2.40;;
64903;SDS011;51401;48.882;12.598;2023-10-08T15:16:43;3.20;;;2.40;;
64903;SDS011;51401;48.882;12.598;2023-10-08T15:19:11;7.22;;;2.80;;